createdAt,value
2022-11-10T00:00:00.594Z,101007.00
2022-11-10T00:02:27.298Z,101013.00
2022-11-10T00:04:54.003Z,101024.00
2022-11-10T00:07:26.269Z,101007.00
2022-11-10T00:09:53.377Z,101023.00
2022-11-10T00:12:22.148Z,101017.00
2022-11-10T00:15:07.272Z,101010.00
2022-11-10T00:17:37.525Z,101023.00
2022-11-10T00:20:05.986Z,101017.00
2022-11-10T00:22:35.190Z,101023.00
2022-11-10T00:25:02.287Z,101031.00
2022-11-10T00:27:29.063Z,101029.00
2022-11-10T00:29:55.842Z,101040.00
2022-11-10T00:32:22.586Z,101033.00
2022-11-10T00:34:49.469Z,101032.00
2022-11-10T00:37:16.661Z,101030.00
2022-11-10T00:39:43.448Z,101034.00
2022-11-10T00:42:10.415Z,101049.00
2022-11-10T00:44:37.594Z,101041.00
2022-11-10T00:47:04.363Z,101046.00
2022-11-10T00:49:31.086Z,101042.00
2022-11-10T00:51:58.601Z,101042.00
2022-11-10T00:54:25.846Z,101055.00
2022-11-10T00:56:52.566Z,101048.00
2022-11-10T00:59:19.284Z,101045.00
2022-11-10T01:01:46.172Z,101051.00
2022-11-10T01:04:12.962Z,101058.00
2022-11-10T01:06:39.781Z,101059.00
2022-11-10T01:09:06.653Z,101057.00
2022-11-10T01:11:33.594Z,101058.00
2022-11-10T01:14:00.311Z,101062.00
2022-11-10T01:16:31.225Z,101064.00
2022-11-10T01:19:03.341Z,101062.00
2022-11-10T01:21:31.171Z,101064.00
2022-11-10T01:23:58.185Z,101063.00
2022-11-10T01:26:25.965Z,101077.00
2022-11-10T01:28:52.806Z,101069.00
2022-11-10T01:31:21.768Z,101083.00
2022-11-10T01:33:48.753Z,101084.00
2022-11-10T01:36:15.537Z,101090.00
2022-11-10T01:38:43.427Z,101080.00
2022-11-10T01:41:14.383Z,101086.00
2022-11-10T01:43:41.900Z,101096.00
2022-11-10T01:46:12.120Z,101104.00
2022-11-10T01:48:53.173Z,101107.00
2022-11-10T01:51:42.721Z,101109.00
2022-11-10T01:54:19.527Z,101110.00
2022-11-10T01:56:51.841Z,101113.00
2022-11-10T01:59:27.614Z,101123.00
2022-11-10T02:02:06.798Z,101124.00
2022-11-10T02:04:34.757Z,101129.00
2022-11-10T02:07:01.918Z,101132.00
2022-11-10T02:09:28.782Z,101133.00
2022-11-10T02:11:56.909Z,101117.00
2022-11-10T02:14:23.816Z,101123.00
2022-11-10T02:16:50.726Z,101125.00
2022-11-10T02:19:24.962Z,101129.00
2022-11-10T02:21:51.907Z,101133.00
2022-11-10T02:24:18.673Z,101139.00
2022-11-10T02:26:55.939Z,101132.00
2022-11-10T02:29:25.459Z,101134.00
2022-11-10T02:31:52.495Z,101153.00
2022-11-10T02:34:19.334Z,101157.00
2022-11-10T02:36:46.097Z,101156.00
2022-11-10T02:39:12.796Z,101157.00
2022-11-10T02:41:39.583Z,101154.00
2022-11-10T02:44:07.939Z,101161.00
2022-11-10T02:46:37.460Z,101167.00
2022-11-10T02:49:04.295Z,101171.00
2022-11-10T02:51:31.090Z,101157.00
2022-11-10T02:53:57.830Z,101161.00
2022-11-10T02:56:24.931Z,101153.00
2022-11-10T02:58:51.711Z,101163.00
2022-11-10T03:01:18.500Z,101173.00
2022-11-10T03:03:45.346Z,101180.00
2022-11-10T03:06:13.288Z,101177.00
2022-11-10T03:08:40.101Z,101181.00
2022-11-10T03:11:06.852Z,101181.00
2022-11-10T03:13:51.747Z,101179.00
2022-11-10T03:16:20.451Z,101188.00
2022-11-10T03:18:47.138Z,101195.00
2022-11-10T03:21:13.854Z,101205.00
2022-11-10T03:23:40.669Z,101212.00
2022-11-10T03:26:07.898Z,101217.00
2022-11-10T03:28:34.975Z,101221.00
2022-11-10T03:31:01.745Z,101216.00
2022-11-10T03:33:28.504Z,101222.00
2022-11-10T03:35:55.233Z,101235.00
2022-11-10T03:38:22.041Z,101231.00
2022-11-10T03:41:17.607Z,101237.00
2022-11-10T03:43:38.076Z,101228.00
2022-11-10T03:46:04.880Z,101241.00
2022-11-10T03:48:31.608Z,101240.00
2022-11-10T03:50:58.323Z,101245.00
2022-11-10T03:53:25.258Z,101235.00
2022-11-10T03:55:52.140Z,101242.00
2022-11-10T03:58:18.923Z,101252.00
2022-11-10T04:00:45.690Z,101256.00
2022-11-10T04:03:12.444Z,101250.00
2022-11-10T04:05:57.951Z,101246.00
2022-11-10T04:08:43.124Z,101261.00
2022-11-10T04:11:10.308Z,101256.00
2022-11-10T04:13:57.290Z,101266.00
2022-11-10T04:16:24.071Z,101270.00
2022-11-10T04:18:50.794Z,101282.00
2022-11-10T04:21:17.614Z,101285.00
2022-11-10T04:23:44.380Z,101291.00
2022-11-10T04:26:29.785Z,101289.00
2022-11-10T04:29:00.416Z,101293.00
2022-11-10T04:31:30.163Z,101300.00
2022-11-10T04:33:58.238Z,101301.00
2022-11-10T04:36:29.342Z,101314.00
2022-11-10T04:38:56.719Z,101303.00
2022-11-10T04:41:26.689Z,101320.00
2022-11-10T04:43:53.843Z,101322.00
2022-11-10T04:46:36.896Z,101309.00
2022-11-10T04:49:06.637Z,101318.00
2022-11-10T04:51:37.401Z,101324.00
2022-11-10T04:54:06.747Z,101324.00
2022-11-10T04:56:34.791Z,101325.00
2022-11-10T04:59:01.786Z,101322.00
2022-11-10T05:01:29.577Z,101317.00
2022-11-10T05:03:56.690Z,101323.00
2022-11-10T05:06:24.491Z,101324.00
2022-11-10T05:08:51.920Z,101333.00
2022-11-10T05:11:19.249Z,101338.00
2022-11-10T05:13:46.319Z,101333.00
2022-11-10T05:16:13.711Z,101345.00
2022-11-10T05:18:41.395Z,101342.00
2022-11-10T05:21:08.427Z,101338.00
2022-11-10T05:23:38.302Z,101341.00
2022-11-10T05:26:15.296Z,101355.00
2022-11-10T05:28:45.335Z,101367.00
2022-11-10T05:31:12.877Z,101359.00
2022-11-10T05:33:40.420Z,101372.00
2022-11-10T05:36:08.206Z,101373.00
2022-11-10T05:38:39.052Z,101373.00
2022-11-10T05:41:07.158Z,101386.00
2022-11-10T05:43:33.881Z,101382.00
2022-11-10T05:46:00.717Z,101393.00
2022-11-10T05:48:27.474Z,101403.00
2022-11-10T05:50:54.227Z,101398.00
2022-11-10T05:53:21.136Z,101404.00
2022-11-10T05:55:48.107Z,101416.00
2022-11-10T05:58:14.980Z,101416.00
2022-11-10T06:00:41.729Z,101422.00
2022-11-10T06:03:18.179Z,101432.00
2022-11-10T06:05:45.696Z,101438.00
2022-11-10T06:08:12.930Z,101446.00
2022-11-10T06:10:40.549Z,101440.00
2022-11-10T06:13:07.442Z,101449.00
2022-11-10T06:15:34.616Z,101453.00
2022-11-10T06:18:01.455Z,101466.00
2022-11-10T06:20:28.774Z,101463.00
2022-11-10T06:23:02.808Z,101464.00
2022-11-10T06:25:32.823Z,101475.00
2022-11-10T06:28:00.122Z,101475.00
2022-11-10T06:30:29.132Z,101483.00
2022-11-10T06:32:56.027Z,101489.00
2022-11-10T06:35:24.296Z,101497.00
2022-11-10T06:38:02.263Z,101502.00
2022-11-10T06:40:30.023Z,101517.00
2022-11-10T06:42:57.280Z,101512.00
2022-11-10T06:45:24.996Z,101523.00
2022-11-10T06:48:11.127Z,101527.00
2022-11-10T06:50:38.031Z,101539.00
2022-11-10T06:53:05.202Z,101539.00
2022-11-10T06:55:32.515Z,101548.00
2022-11-10T06:57:59.559Z,101552.00
2022-11-10T07:00:28.632Z,101547.00
2022-11-10T07:03:07.180Z,101556.00
2022-11-10T07:05:36.697Z,101561.00
2022-11-10T07:08:15.991Z,101571.00
2022-11-10T07:10:45.067Z,101582.00
2022-11-10T07:13:12.353Z,101584.00
2022-11-10T07:15:39.185Z,101598.00
2022-11-10T07:18:06.056Z,101585.00
2022-11-10T07:20:33.105Z,101604.00
2022-11-10T07:23:02.252Z,101604.00
2022-11-10T07:25:32.239Z,101595.00
2022-11-10T07:28:02.226Z,101607.00
2022-11-10T07:30:31.578Z,101621.00
2022-11-10T07:33:05.080Z,101620.00
2022-11-10T07:35:34.286Z,101635.00
2022-11-10T07:38:12.169Z,101634.00
2022-11-10T07:40:39.264Z,101631.00
2022-11-10T07:43:06.325Z,101637.00
2022-11-10T07:45:35.952Z,101631.00
2022-11-10T07:48:06.199Z,101639.00
2022-11-10T07:50:36.455Z,101653.00
2022-11-10T07:53:10.665Z,101656.00
2022-11-10T07:55:40.398Z,101658.00
2022-11-10T07:58:08.332Z,101659.00
2022-11-10T08:00:37.673Z,101652.00
2022-11-10T08:03:17.823Z,101668.00
2022-11-10T08:05:45.544Z,101675.00
2022-11-10T08:08:13.448Z,101671.00
2022-11-10T08:10:41.938Z,101671.00
2022-11-10T08:13:12.460Z,101678.00
2022-11-10T08:15:40.540Z,101678.00
2022-11-10T08:18:17.302Z,101677.00
2022-11-10T08:20:44.712Z,101692.00
2022-11-10T08:23:12.651Z,101685.00
2022-11-10T08:25:40.176Z,101688.00
2022-11-10T08:28:09.684Z,101693.00
2022-11-10T08:30:38.957Z,101693.00
2022-11-10T08:33:08.436Z,101694.00
2022-11-10T08:35:41.978Z,101701.00
2022-11-10T08:38:21.331Z,101703.00
2022-11-10T08:40:48.963Z,101699.00
2022-11-10T08:43:18.044Z,101714.00
2022-11-10T08:45:45.792Z,101712.00
2022-11-10T08:48:19.839Z,101724.00
2022-11-10T08:50:49.660Z,101726.00
2022-11-10T08:53:20.948Z,101724.00
2022-11-10T08:55:48.249Z,101742.00
2022-11-10T08:58:18.863Z,101730.00
2022-11-10T09:00:46.274Z,101741.00
2022-11-10T09:03:17.114Z,101741.00
2022-11-10T09:05:44.376Z,101753.00
2022-11-10T09:08:11.578Z,101764.00
2022-11-10T09:10:42.945Z,101769.00
2022-11-10T09:13:12.249Z,101767.00
2022-11-10T09:15:40.124Z,101764.00
2022-11-10T09:18:08.919Z,101770.00
2022-11-10T09:20:37.354Z,101773.00
2022-11-10T09:23:18.788Z,101785.00
2022-11-10T09:25:55.369Z,101783.00
2022-11-10T09:28:23.537Z,101789.00
2022-11-10T09:30:51.787Z,101782.00
2022-11-10T09:33:18.668Z,101787.00
2022-11-10T09:35:45.622Z,101788.00
2022-11-10T09:38:12.994Z,101787.00
2022-11-10T09:41:05.057Z,101796.00
2022-11-10T09:44:03.180Z,101799.00
2022-11-10T09:46:37.922Z,101808.00
2022-11-10T09:49:36.558Z,101815.00
2022-11-10T09:52:05.007Z,101805.00
2022-11-10T09:54:53.691Z,101814.00
2022-11-10T09:57:26.644Z,101807.00
2022-11-10T09:59:54.794Z,101804.00
2022-11-10T10:02:31.582Z,101808.00
2022-11-10T10:05:33.742Z,101813.00
2022-11-10T10:08:08.714Z,101804.00
2022-11-10T10:10:47.204Z,101806.00
2022-11-10T10:13:52.436Z,101813.00
2022-11-10T10:17:00.285Z,101813.00
2022-11-10T10:19:45.727Z,101810.00
2022-11-10T10:23:00.950Z,101818.00
2022-11-10T10:25:28.806Z,101814.00
2022-11-10T10:28:07.892Z,101811.00
2022-11-10T10:30:34.643Z,101819.00
2022-11-10T10:33:21.033Z,101810.00
2022-11-10T10:35:50.878Z,101814.00
2022-11-10T10:38:39.476Z,101822.00
2022-11-10T10:41:37.077Z,101827.00
2022-11-10T10:44:13.430Z,101826.00
2022-11-10T10:46:50.339Z,101818.00
2022-11-10T10:49:29.525Z,101825.00
2022-11-10T10:52:06.468Z,101830.00
2022-11-10T10:54:36.930Z,101828.00
2022-11-10T10:57:20.802Z,101841.00
2022-11-10T10:59:47.701Z,101841.00
2022-11-10T11:02:32.962Z,101828.00
2022-11-10T11:05:15.260Z,101849.00
2022-11-10T11:07:55.225Z,101839.00
2022-11-10T11:10:34.196Z,101827.00
2022-11-10T11:13:25.853Z,101842.00
2022-11-10T11:16:09.465Z,101848.00
2022-11-10T11:18:40.938Z,101830.00
2022-11-10T11:21:37.308Z,101831.00
2022-11-10T11:24:38.106Z,101849.00
2022-11-10T11:27:29.754Z,101835.00
2022-11-10T11:30:09.485Z,101850.00
2022-11-10T11:33:04.946Z,101849.00
2022-11-10T11:35:53.586Z,101851.00
2022-11-10T11:38:42.647Z,101861.00
2022-11-10T11:41:43.941Z,101857.00
2022-11-10T11:44:22.486Z,101848.00
2022-11-10T11:47:13.714Z,101857.00
2022-11-10T11:50:23.722Z,101854.00
2022-11-10T11:53:41.669Z,101857.00
2022-11-10T11:56:19.699Z,101848.00
2022-11-10T11:59:10.989Z,101841.00
2022-11-10T12:02:30.715Z,101849.00
2022-11-10T12:05:34.236Z,101852.00
2022-11-10T12:08:43.958Z,101849.00
2022-11-10T12:11:45.223Z,101850.00
2022-11-10T12:14:27.271Z,101853.00
2022-11-10T12:17:26.774Z,101848.00
2022-11-10T12:20:13.045Z,101845.00
2022-11-10T12:23:31.333Z,101849.00
2022-11-10T12:26:39.199Z,101858.00
2022-11-10T12:29:22.208Z,101847.00
2022-11-10T12:31:55.792Z,101849.00
2022-11-10T12:34:40.624Z,101849.00
2022-11-10T12:37:17.539Z,101860.00
2022-11-10T12:40:01.704Z,101871.00
2022-11-10T12:42:29.977Z,101886.00
2022-11-10T12:45:20.235Z,101887.00
2022-11-10T12:47:48.171Z,101892.00
2022-11-10T12:51:03.017Z,101875.00
2022-11-10T12:53:35.383Z,101889.00
2022-11-10T12:56:25.963Z,101898.00
2022-11-10T12:59:20.768Z,101905.00
2022-11-10T13:02:31.996Z,101901.00
2022-11-10T13:05:28.463Z,101905.00
2022-11-10T13:08:27.160Z,101902.00
2022-11-10T13:11:12.012Z,101903.00
2022-11-10T13:13:47.501Z,101914.00
2022-11-10T13:16:47.323Z,101907.00
2022-11-10T13:19:23.377Z,101910.00
2022-11-10T13:21:52.883Z,101907.00
2022-11-10T13:24:33.738Z,101915.00
2022-11-10T13:27:01.660Z,101910.00
2022-11-10T13:29:48.085Z,101918.00
2022-11-10T13:32:14.744Z,101911.00
2022-11-10T13:34:44.283Z,101933.00
2022-11-10T13:37:29.583Z,101937.00
2022-11-10T13:40:25.339Z,101929.00
2022-11-10T13:42:58.179Z,101930.00
2022-11-10T13:45:36.817Z,101930.00
2022-11-10T13:48:18.497Z,101931.00
2022-11-10T13:51:15.839Z,101943.00
2022-11-10T13:54:36.038Z,101945.00
2022-11-10T13:57:40.863Z,101944.00
2022-11-10T14:00:17.162Z,101947.00
2022-11-10T14:03:07.910Z,101945.00
2022-11-10T14:05:38.556Z,101940.00
2022-11-10T14:08:23.780Z,101950.00
2022-11-10T14:10:58.695Z,101966.00
2022-11-10T14:13:45.688Z,101966.00
2022-11-10T14:16:23.888Z,101969.00
2022-11-10T14:19:34.728Z,101968.00
2022-11-10T14:22:29.873Z,101966.00
2022-11-10T14:25:25.378Z,101979.00
2022-11-10T14:27:57.710Z,101979.00
2022-11-10T14:30:27.946Z,101984.00
2022-11-10T14:33:06.311Z,101983.00
2022-11-10T14:36:02.830Z,101982.00
2022-11-10T14:38:37.222Z,101983.00
2022-11-10T14:41:06.696Z,101997.00
2022-11-10T14:43:39.043Z,101995.00
2022-11-10T14:46:07.538Z,101998.00
2022-11-10T14:48:38.691Z,102004.00
2022-11-10T14:51:15.728Z,102010.00
2022-11-10T14:53:52.152Z,102012.00
2022-11-10T14:56:23.410Z,102016.00
2022-11-10T14:58:50.814Z,102021.00
2022-11-10T15:01:33.792Z,102016.00
2022-11-10T15:04:06.689Z,102030.00
2022-11-10T15:06:34.818Z,102035.00
2022-11-10T15:09:22.890Z,102043.00
2022-11-10T15:12:07.554Z,102038.00
2022-11-10T15:14:44.645Z,102046.00
2022-11-10T15:17:18.564Z,102048.00
2022-11-10T15:19:48.669Z,102045.00
2022-11-10T15:22:33.594Z,102050.00
2022-11-10T15:25:08.524Z,102050.00
2022-11-10T15:27:35.445Z,102050.00
2022-11-10T15:30:19.990Z,102057.00
2022-11-10T15:32:49.722Z,102057.00
2022-11-10T15:35:31.143Z,102061.00
2022-11-10T15:38:27.071Z,102068.00
2022-11-10T15:41:26.597Z,102066.00
2022-11-10T15:43:53.962Z,102074.00
2022-11-10T15:46:24.959Z,102073.00
2022-11-10T15:48:52.931Z,102080.00
2022-11-10T15:51:25.863Z,102086.00
2022-11-10T15:53:54.435Z,102071.00
2022-11-10T15:56:24.267Z,102080.00
2022-11-10T15:59:01.843Z,102073.00
2022-11-10T16:01:30.577Z,102068.00
2022-11-10T16:03:57.394Z,102061.00
2022-11-10T16:06:24.109Z,102056.00
2022-11-10T16:08:50.870Z,102056.00
2022-11-10T16:11:20.886Z,102063.00
2022-11-10T16:13:50.329Z,102069.00
2022-11-10T16:16:19.144Z,102065.00
2022-11-10T16:18:46.453Z,102078.00
2022-11-10T16:21:16.010Z,102067.00
2022-11-10T16:23:43.816Z,102074.00
2022-11-10T16:26:17.956Z,102071.00
2022-11-10T16:28:47.776Z,102077.00
2022-11-10T16:31:18.056Z,102088.00
2022-11-10T16:33:46.732Z,102099.00
2022-11-10T16:36:32.180Z,102100.00
2022-11-10T16:39:09.544Z,102108.00
2022-11-10T16:41:36.322Z,102115.00
2022-11-10T16:44:03.456Z,102120.00
2022-11-10T16:46:30.785Z,102120.00
2022-11-10T16:49:03.656Z,102130.00
2022-11-10T16:51:47.189Z,102122.00
2022-11-10T16:54:16.167Z,102120.00
2022-11-10T16:56:42.983Z,102118.00
2022-11-10T16:59:10.548Z,102118.00
2022-11-10T17:01:40.392Z,102118.00
2022-11-10T17:04:11.719Z,102122.00
2022-11-10T17:06:38.501Z,102113.00
2022-11-10T17:09:15.410Z,102115.00
2022-11-10T17:11:42.153Z,102132.00
2022-11-10T17:14:12.173Z,102120.00
2022-11-10T17:16:45.930Z,102139.00
2022-11-10T17:19:23.389Z,102141.00
2022-11-10T17:21:53.877Z,102140.00
2022-11-10T17:24:21.015Z,102143.00
2022-11-10T17:26:48.262Z,102148.00
2022-11-10T17:29:18.274Z,102150.00
2022-11-10T17:31:45.511Z,102156.00
2022-11-10T17:34:12.932Z,102170.00
2022-11-10T17:36:41.185Z,102177.00
2022-11-10T17:39:14.449Z,102176.00
2022-11-10T17:41:41.230Z,102182.00
2022-11-10T17:44:14.383Z,102180.00
2022-11-10T17:46:42.656Z,102172.00
2022-11-10T17:49:09.916Z,102173.00
2022-11-10T17:51:37.338Z,102174.00
2022-11-10T17:54:06.001Z,102176.00
2022-11-10T17:56:32.905Z,102182.00
2022-11-10T17:59:00.954Z,102177.00
2022-11-10T18:01:27.912Z,102171.00
2022-11-10T18:03:54.987Z,102171.00
2022-11-10T18:06:21.992Z,102177.00
2022-11-10T18:08:48.767Z,102189.00
2022-11-10T18:11:18.642Z,102181.00
2022-11-10T18:13:45.991Z,102185.00
2022-11-10T18:16:14.202Z,102175.00
2022-11-10T18:18:41.793Z,102172.00
2022-11-10T18:21:09.735Z,102172.00
2022-11-10T18:23:36.653Z,102164.00
2022-11-10T18:26:08.555Z,102169.00
2022-11-10T18:28:36.175Z,102179.00
2022-11-10T18:31:12.718Z,102181.00
2022-11-10T18:33:39.996Z,102186.00
2022-11-10T18:36:07.361Z,102188.00
2022-11-10T18:38:35.134Z,102202.00
2022-11-10T18:41:25.925Z,102195.00
2022-11-10T18:43:52.875Z,102202.00
2022-11-10T18:46:19.657Z,102203.00
2022-11-10T18:48:46.998Z,102204.00
2022-11-10T18:51:15.103Z,102196.00
2022-11-10T18:53:41.918Z,102208.00
2022-11-10T18:56:08.857Z,102217.00
2022-11-10T18:58:42.412Z,102198.00
2022-11-10T19:01:10.861Z,102208.00
2022-11-10T19:03:38.000Z,102211.00
2022-11-10T19:06:05.874Z,102204.00
2022-11-10T19:08:32.657Z,102217.00
2022-11-10T19:10:59.649Z,102199.00
2022-11-10T19:13:26.631Z,102200.00
2022-11-10T19:15:55.725Z,102200.00
2022-11-10T19:18:22.490Z,102221.00
2022-11-10T19:20:49.289Z,102234.00
2022-11-10T19:23:16.017Z,102232.00
2022-11-10T19:25:42.745Z,102223.00
2022-11-10T19:28:11.420Z,102214.00
2022-11-10T19:30:39.490Z,102221.00
2022-11-10T19:33:06.492Z,102233.00
2022-11-10T19:35:33.318Z,102247.00
2022-11-10T19:38:00.255Z,102242.00
2022-11-10T19:40:26.994Z,102223.00
2022-11-10T19:42:53.890Z,102227.00
2022-11-10T19:45:20.670Z,102228.00
2022-11-10T19:47:47.356Z,102222.00
2022-11-10T19:50:14.075Z,102223.00
2022-11-10T19:52:40.776Z,102230.00
2022-11-10T19:55:07.865Z,102221.00
2022-11-10T19:57:34.613Z,102226.00
2022-11-10T20:00:01.321Z,102233.00
2022-11-10T20:02:28.097Z,102236.00
2022-11-10T20:05:13.057Z,102235.00
2022-11-10T20:07:58.279Z,102232.00
2022-11-10T20:10:25.004Z,102243.00
2022-11-10T20:12:52.037Z,102230.00
2022-11-10T20:15:18.802Z,102240.00
2022-11-10T20:17:45.592Z,102245.00
2022-11-10T20:20:12.628Z,102253.00
2022-11-10T20:22:39.573Z,102255.00
2022-11-10T20:25:06.839Z,102261.00
2022-11-10T20:27:33.648Z,102257.00
2022-11-10T20:30:00.425Z,102267.00
2022-11-10T20:32:27.723Z,102267.00
2022-11-10T20:34:54.437Z,102274.00
2022-11-10T20:37:21.153Z,102267.00
2022-11-10T20:39:47.900Z,102276.00
2022-11-10T20:42:14.677Z,102282.00
2022-11-10T20:44:41.537Z,102288.00
2022-11-10T20:47:08.452Z,102275.00
2022-11-10T20:49:35.423Z,102289.00
2022-11-10T20:52:03.176Z,102297.00
2022-11-10T20:54:30.306Z,102296.00
2022-11-10T20:56:57.053Z,102286.00
2022-11-10T20:59:23.965Z,102295.00
2022-11-10T21:01:50.799Z,102290.00
2022-11-10T21:04:18.187Z,102296.00
2022-11-10T21:06:45.121Z,102310.00
2022-11-10T21:09:11.927Z,102312.00
2022-11-10T21:11:57.020Z,102305.00
2022-11-10T21:14:23.798Z,102316.00
2022-11-10T21:16:50.604Z,102310.00
2022-11-10T21:19:17.367Z,102318.00
2022-11-10T21:21:44.305Z,102318.00
2022-11-10T21:24:11.586Z,102312.00
2022-11-10T21:26:38.360Z,102319.00
2022-11-10T21:29:07.826Z,102315.00
2022-11-10T21:31:34.797Z,102301.00
2022-11-10T21:34:01.549Z,102298.00
2022-11-10T21:36:29.731Z,102307.00
2022-11-10T21:38:58.348Z,102307.00
2022-11-10T21:41:26.234Z,102297.00
2022-11-10T21:43:53.155Z,102295.00
2022-11-10T21:46:19.999Z,102293.00
2022-11-10T21:48:46.897Z,102299.00
2022-11-10T21:51:14.380Z,102286.00
2022-11-10T21:53:44.109Z,102295.00
2022-11-10T21:56:12.167Z,102285.00
2022-11-10T21:58:39.764Z,102295.00
2022-11-10T22:01:10.778Z,102298.00
2022-11-10T22:03:37.968Z,102313.00
2022-11-10T22:06:11.046Z,102304.00
2022-11-10T22:08:39.908Z,102307.00
2022-11-10T22:11:34.996Z,102303.00
2022-11-10T22:14:34.150Z,102303.00
2022-11-10T22:17:19.604Z,102308.00
2022-11-10T22:19:46.351Z,102303.00
2022-11-10T22:22:15.985Z,102320.00
2022-11-10T22:24:42.732Z,102318.00
2022-11-10T22:27:09.699Z,102320.00
2022-11-10T22:29:36.410Z,102328.00
2022-11-10T22:32:03.911Z,102330.00
2022-11-10T22:34:30.658Z,102342.00
2022-11-10T22:36:59.351Z,102338.00
2022-11-10T22:39:46.414Z,102349.00
2022-11-10T22:42:31.781Z,102336.00
2022-11-10T22:44:58.745Z,102332.00
2022-11-10T22:47:25.467Z,102339.00
2022-11-10T22:49:52.173Z,102335.00
2022-11-10T22:52:18.944Z,102334.00
2022-11-10T22:54:45.696Z,102334.00
2022-11-10T22:57:12.408Z,102332.00
2022-11-10T22:59:39.140Z,102338.00
2022-11-10T23:02:05.859Z,102336.00
2022-11-10T23:04:32.570Z,102334.00
2022-11-10T23:06:59.340Z,102338.00
2022-11-10T23:09:26.143Z,102332.00
2022-11-10T23:11:52.855Z,102334.00
2022-11-10T23:14:19.585Z,102339.00
2022-11-10T23:16:46.282Z,102331.00
2022-11-10T23:19:13.068Z,102332.00
2022-11-10T23:21:39.864Z,102343.00
2022-11-10T23:24:06.982Z,102354.00
2022-11-10T23:26:34.871Z,102362.00
2022-11-10T23:29:01.670Z,102363.00
2022-11-10T23:31:28.605Z,102364.00
2022-11-10T23:33:57.716Z,102343.00
2022-11-10T23:36:27.336Z,102349.00
2022-11-10T23:38:55.050Z,102348.00
2022-11-10T23:41:25.888Z,102354.00
2022-11-10T23:43:53.685Z,102346.00
2022-11-10T23:46:20.453Z,102350.00
2022-11-10T23:48:47.191Z,102344.00
2022-11-10T23:51:15.258Z,102361.00
2022-11-10T23:53:42.402Z,102367.00
2022-11-10T23:56:13.090Z,102365.00
2022-11-10T23:58:41.568Z,102361.00
